Time;durP1;ratioP1;P1;durP2;ratioP2;P2;SDS_P1;SDS_P2;PMS_P1;PMS_P2;Temp;Humidity;BMP_temperature;BMP_pressure;BME280_temperature;BME280_humidity;BME280_pressure;Samples;Min_cycle;Max_cycle;Signal;HPM_P1;HPM_P2
2022/11/12 00:01:22;;;;;;;1999.90;999.90;;;10.50;26.50;;;;;;5093963;28;20044;-78
2022/11/12 00:03:48;;;;;;;1999.90;999.90;;;11.80;53.10;;;;;;5101844;28;20042;-84
2022/11/12 00:06:14;;;;;;;1999.90;999.90;;;10.50;67.70;;;;;;5103765;27;20130;-81
2022/11/12 00:08:39;;;;;;;1999.90;650.42;;;10.30;54.60;;;;;;5100312;28;20101;-79
2022/11/12 00:11:06;;;;;;;1999.90;999.90;;;11.00;50.10;;;;;;5100765;28;20051;-78
2022/11/12 00:13:31;;;;;;;1999.90;999.90;;;10.20;1.00;;;;;;5091167;28;20040;-78
2022/11/12 00:15:57;;;;;;;1999.90;999.90;;;10.80;1.00;;;;;;5103280;28;20122;-80
2022/11/12 00:18:23;;;;;;;1999.90;999.90;;;10.40;83.20;;;;;;5098360;28;20506;-78
2022/11/12 00:20:49;;;;;;;1999.90;350.92;;;10.30;22.80;;;;;;5093364;28;20466;-81
2022/11/12 00:23:15;;;;;;;1999.90;999.90;;;12.00;35.30;;;;;;5102184;28;20127;-78
2022/11/12 00:25:40;;;;;;;1999.90;999.90;;;10.30;42.80;;;;;;5097071;28;20431;-78
2022/11/12 00:28:09;;;;;;;1836.90;374.77;;;10.30;27.30;;;;;;5087550;28;20044;-79
2022/11/12 00:30:38;;;;;;;1999.90;833.33;;;11.10;47.00;;;;;;5099927;28;20044;-78
2022/11/12 00:33:05;;;;;;;1999.90;480.02;;;10.20;31.80;;;;;;5081314;28;20040;-78
2022/11/12 00:35:32;;;;;;;1879.78;794.70;;;10.20;35.20;;;;;;5097378;28;20118;-83
2022/11/12 00:37:58;;;;;;;1999.90;348.60;;;10.20;1.00;;;;;;5090420;28;20051;-85
2022/11/12 00:40:24;;;;;;;1999.90;651.08;;;10.20;1.00;;;;;;5082945;28;20119;-78
2022/11/12 00:42:51;;;;;;;1813.28;781.97;;;10.20;10.30;;;;;;5090113;28;20114;-78
2022/11/12 00:45:20;;;;;;;1735.13;558.92;;;10.20;36.60;;;;;;5091629;28;20935;-78
2022/11/12 00:47:46;;;;;;;1999.90;809.55;;;10.20;86.40;;;;;;5092233;28;20044;-79
2022/11/12 00:50:12;;;;;;;1999.90;813.55;;;11.30;99.90;;;;;;5083213;28;20050;-78
2022/11/12 00:52:38;;;;;;;1921.55;189.13;;;10.30;99.90;;;;;;5093017;28;20154;-79
2022/11/12 00:55:03;;;;;;;1999.90;657.47;;;11.80;99.90;;;;;;5090273;28;20066;-78
2022/11/12 00:57:29;;;;;;;1902.60;798.80;;;10.40;99.90;;;;;;5088539;28;20157;-78
2022/11/12 00:59:55;;;;;;;1230.10;171.05;;;11.70;99.90;;;;;;5091520;28;20040;-78
2022/11/12 01:02:21;;;;;;;1999.90;999.90;;;10.60;99.90;;;;;;5066847;28;20050;-78
2022/11/12 01:04:47;;;;;;;1702.03;600.08;;;10.60;99.90;;;;;;5088060;28;20074;-78
2022/11/12 01:07:14;;;;;;;1999.90;347.35;;;10.60;99.90;;;;;;5086094;28;20105;-79
2022/11/12 01:09:41;;;;;;;1999.90;394.15;;;10.60;99.90;;;;;;5094424;28;20050;-77
2022/11/12 01:12:07;;;;;;;1999.90;364.13;;;10.60;99.90;;;;;;5103173;28;20044;-77
2022/11/12 01:14:32;;;;;;;1999.90;416.85;;;10.50;99.90;;;;;;5096336;28;20511;-77
2022/11/12 01:16:58;;;;;;;1845.57;801.30;;;10.60;99.90;;;;;;5090783;28;20050;-76
2022/11/12 01:19:24;;;;;;;1999.90;999.90;;;11.50;99.90;;;;;;5092852;28;20046;-78
2022/11/12 01:21:49;;;;;;;1999.90;999.90;;;10.50;99.90;;;;;;5081113;28;20074;-82
2022/11/12 01:24:15;;;;;;;1999.90;625.95;;;10.50;99.90;;;;;;5090436;28;20040;-78
2022/11/12 01:26:41;;;;;;;1999.90;654.33;;;10.80;99.90;;;;;;5095248;28;20131;-78
2022/11/12 01:29:07;;;;;;;1999.90;820.00;;;10.50;99.90;;;;;;5094512;28;20710;-78
2022/11/12 01:31:37;;;;;;;1999.90;999.90;;;10.60;99.90;;;;;;5080458;28;20039;-77
2022/11/12 01:34:06;;;;;;;1999.90;820.58;;;10.50;99.90;;;;;;5094525;28;20039;-80
2022/11/12 01:36:37;;;;;;;1290.05;204.82;;;10.50;99.90;;;;;;5098660;28;20039;-78
2022/11/12 01:39:06;;;;;;;1672.03;599.80;;;10.50;85.70;;;;;;5091140;28;20102;-77
2022/11/12 01:41:34;;;;;;;1999.90;349.10;;;10.70;79.10;;;;;;5106192;28;20506;-81
2022/11/12 01:44:15;;;;;;;1571.72;587.85;;;10.90;97.30;;;;;;5086599;28;20059;-77
2022/11/12 01:46:59;;;;;;;1999.90;999.90;;;10.40;90.30;;;;;;5089965;28;20052;-77
2022/11/12 01:49:38;;;;;;;1999.90;493.85;;;10.30;90.30;;;;;;5089935;28;20073;-77
2022/11/12 01:52:23;;;;;;;1999.90;999.90;;;10.40;99.90;;;;;;5074700;28;20541;-79
2022/11/12 01:54:52;;;;;;;1999.90;624.67;;;10.40;71.10;;;;;;5087375;28;20496;-77
2022/11/12 01:57:25;;;;;;;1908.88;802.35;;;10.10;99.90;;;;;;5088448;28;20403;-77
2022/11/12 01:59:56;;;;;;;1305.05;172.05;;;12.10;53.00;;;;;;5085930;28;20047;-78
2022/11/12 02:02:22;;;;;;;1999.90;542.85;;;10.50;99.90;;;;;;5085078;28;20048;-77
2022/11/12 02:04:48;;;;;;;1999.90;311.40;;;;;;;;;;5088329;28;20059;-78
2022/11/12 02:07:16;;;;;;;1999.90;999.90;;;10.70;99.90;;;;;;5087707;28;20069;-77
2022/11/12 02:09:41;;;;;;;1765.05;594.15;;;10.60;99.90;;;;;;5100535;28;20062;-77
2022/11/12 02:13:56;;;;;;;1607.80;573.50;;;10.70;99.90;;;;;;5090303;28;20064;-77
2022/11/12 02:14:53;;;;;;;1999.90;999.90;;;12.20;99.90;;;;;;5086638;28;20051;-77
2022/11/12 02:17:19;;;;;;;1999.90;999.90;;;10.70;99.90;;;;;;5089949;28;20048;-77
2022/11/12 02:19:46;;;;;;;1999.90;822.15;;;10.60;99.90;;;;;;5082159;28;20056;-77
2022/11/12 02:22:11;;;;;;;1764.78;791.13;;;10.00;99.90;;;;;;5101844;28;20048;-84
2022/11/12 02:24:37;;;;;;;1999.90;774.90;;;11.30;99.90;;;;;;5085357;28;20437;-77
2022/11/12 02:27:04;;;;;;;1999.90;892.20;;;10.70;99.90;;;;;;5101075;28;20134;-77
2022/11/12 02:29:31;;;;;;;1999.90;927.05;;;11.30;99.90;;;;;;5092838;28;20904;-78
2022/11/12 02:31:56;;;;;;;1999.90;721.95;;;10.60;99.90;;;;;;5064721;28;20056;-83
2022/11/12 02:34:22;;;;;;;1999.90;810.63;;;10.90;99.90;;;;;;5089083;28;20044;-77
2022/11/12 02:36:48;;;;;;;1999.90;833.25;;;10.60;99.90;;;;;;5090727;27;20123;-77
2022/11/12 02:39:13;;;;;;;1999.90;428.40;;;10.60;99.90;;;;;;5093069;28;20043;-84
2022/11/12 02:41:39;;;;;;;1999.90;999.90;;;10.90;99.90;;;;;;5098461;28;20043;-77
2022/11/12 02:44:05;;;;;;;1999.90;718.25;;;10.80;99.90;;;;;;5087851;28;20522;-80
2022/11/12 02:46:30;;;;;;;1999.90;811.67;;;10.60;99.90;;;;;;5086714;28;20118;-81
2022/11/12 02:48:56;;;;;;;1999.90;999.90;;;10.50;99.90;;;;;;5095995;28;20040;-79
2022/11/12 02:51:21;;;;;;;1722.85;583.88;;;10.60;99.90;;;;;;5094674;28;20048;-77
2022/11/12 02:53:47;;;;;;;1999.90;999.90;;;10.60;99.90;;;;;;5100641;28;20046;-81
2022/11/12 02:56:13;;;;;;;1999.90;822.65;;;10.50;99.90;;;;;;5089906;28;20071;-77
2022/11/12 02:58:38;;;;;;;1803.78;798.85;;;10.50;99.90;;;;;;5091744;28;20074;-77
2022/11/12 03:01:04;;;;;;;1999.90;979.42;;;10.60;99.90;;;;;;5087895;28;20052;-77
2022/11/12 03:03:30;;;;;;;1999.90;783.00;;;10.40;99.90;;;;;;5089701;28;20567;-77
2022/11/12 03:05:58;;;;;;;1499.00;575.42;;;10.50;99.90;;;;;;5087397;28;20036;-77
2022/11/12 03:08:24;;;;;;;1345.88;358.73;;;10.50;99.90;;;;;;5096721;28;20443;-77
2022/11/12 03:10:50;;;;;;;1735.18;781.60;;;12.00;99.90;;;;;;5100951;28;20097;-77
2022/11/12 03:13:16;;;;;;;1481.75;574.17;;;10.50;99.90;;;;;;5080199;28;20040;-83
2022/11/12 03:15:42;;;;;;;1999.90;731.15;;;10.50;99.90;;;;;;5087230;28;20399;-77
2022/11/12 03:18:08;;;;;;;1156.38;174.85;;;10.70;99.90;;;;;;5102516;28;20136;-77
2022/11/12 03:20:33;;;;;;;1228.30;172.27;;;10.40;99.90;;;;;;5096229;28;20043;-77
2022/11/12 03:23:02;;;;;;;1999.90;999.90;;;10.40;99.90;;;;;;5096284;28;20036;-77
2022/11/12 03:25:28;;;;;;;1999.90;575.60;;;10.90;99.90;;;;;;5102088;28;20052;-76
2022/11/12 03:28:09;;;;;;;1999.90;702.13;;;10.30;99.90;;;;;;5091579;28;20044;-77
2022/11/12 03:30:37;;;;;;;1999.90;687.03;;;10.20;99.90;;;;;;5089348;28;20555;-82
2022/11/12 03:33:03;;;;;;;;;;;10.30;99.90;;;;;;5094745;28;20045;-80
2022/11/12 03:35:29;;;;;;;1824.60;798.47;;;10.30;99.90;;;;;;5093201;28;20368;-78
2022/11/12 03:37:55;;;;;;;1840.10;804.60;;;10.20;99.90;;;;;;5101793;28;20380;-77
2022/11/12 03:40:21;;;;;;;1999.90;433.25;;;10.30;99.90;;;;;;5075497;28;20047;-79
2022/11/12 03:42:48;;;;;;;1999.90;536.60;;;10.50;99.90;;;;;;5087884;28;20047;-79
2022/11/12 03:45:15;;;;;;;1999.90;396.27;;;11.00;99.90;;;;;;5099763;28;20079;-77
2022/11/12 03:47:45;;;;;;;1999.90;999.90;;;10.00;99.90;;;;;;5071750;28;20849;-78
2022/11/12 03:50:12;;;;;;;1999.90;999.90;;;9.90;99.90;;;;;;5085192;28;20055;-77
2022/11/12 03:52:38;;;;;;;1999.90;999.90;;;9.90;99.90;;;;;;5089892;28;20032;-80
2022/11/12 03:55:05;;;;;;;1218.00;192.40;;;9.80;99.90;;;;;;5095554;27;20561;-77
2022/11/12 03:57:31;;;;;;;1999.90;413.05;;;9.90;99.90;;;;;;5090720;28;20055;-78
2022/11/12 03:59:56;;;;;;;1999.90;415.42;;;10.10;99.90;;;;;;5106000;27;20047;-80
2022/11/12 04:02:24;;;;;;;1999.90;608.78;;;9.80;99.90;;;;;;5095101;28;20047;-78
2022/11/12 04:10:18;;;;;;;1838.15;800.97;;;10.00;99.90;;;;;;5092314;28;20637;-77
2022/11/12 04:15:28;;;;;;;1679.40;598.63;;;9.80;99.90;;;;;;5094819;28;20380;-78
2022/11/12 04:23:22;;;;;;;1858.07;576.63;;;9.60;99.90;;;;;;5091435;28;20105;-78
2022/11/12 04:28:32;;;;;;;1999.90;999.90;;;11.10;99.90;;;;;;5092931;28;20044;-77
2022/11/12 04:30:57;;;;;;;1618.97;232.10;;;9.60;99.90;;;;;;5100043;28;20044;-77
2022/11/12 04:33:23;;;;;;;1999.90;999.90;;;10.00;99.90;;;;;;5090591;28;20048;-77
2022/11/12 04:35:48;;;;;;;1999.90;999.90;;;11.10;1.00;;;;;;5088089;28;20050;-77
2022/11/12 04:38:14;;;;;;;1999.90;372.77;;;9.70;99.90;;;;;;5108112;28;20054;-78
2022/11/12 04:46:09;;;;;;;1542.03;393.13;;;9.60;1.00;;;;;;5089851;28;20055;-83
2022/11/12 04:48:34;;;;;;;1656.10;595.28;;;9.00;1.00;;;;;;5095409;28;20557;-78
2022/11/12 04:51:02;;;;;;;1558.72;583.95;;;9.60;99.90;;;;;;5087400;28;20047;-78
2022/11/12 04:53:30;;;;;;;1999.90;790.22;;;11.00;1.00;;;;;;5094485;28;20040;-77
2022/11/12 04:55:56;;;;;;;;;;;9.70;1.00;;;;;;5099328;28;20048;-77
2022/11/12 04:58:22;;;;;;;1522.60;242.30;;;9.80;7.30;;;;;;5105900;28;19924;-83
2022/11/12 05:00:49;;;;;;;889.78;142.60;;;9.90;15.20;;;;;;5088068;28;20487;-78
2022/11/12 05:03:15;;;;;;;1759.75;787.83;;;;;;;;;;5096208;28;20043;-80
2022/11/12 05:05:41;;;;;;;1392.70;394.67;;;11.50;94.10;;;;;;5092672;28;20066;-78
2022/11/12 05:08:06;;;;;;;1567.00;340.13;;;10.00;99.10;;;;;;5110325;27;20133;-77
2022/11/12 05:10:32;;;;;;;1446.95;567.22;;;10.00;99.90;;;;;;5101922;28;20056;-84
2022/11/12 05:12:58;;;;;;;1999.90;999.90;;;10.00;92.20;;;;;;5103272;28;20054;-83
2022/11/12 05:15:24;;;;;;;1999.90;791.30;;;10.00;98.50;;;;;;5097138;28;21634;-78
2022/11/12 05:17:50;;;;;;;1074.50;167.45;;;10.40;99.90;;;;;;5091520;28;20377;-79
2022/11/12 05:20:16;;;;;;;1999.90;759.00;;;10.00;99.90;;;;;;5089432;28;20048;-78
2022/11/12 05:22:42;;;;;;;1999.90;521.80;;;10.00;99.90;;;;;;5094849;28;20436;-77
2022/11/12 05:25:08;;;;;;;1549.00;570.60;;;10.60;99.90;;;;;;5091618;28;20105;-77
2022/11/12 05:27:35;;;;;;;956.05;151.23;;;10.00;99.90;;;;;;5090311;28;20050;-83
2022/11/12 05:30:01;;;;;;;1999.90;733.40;;;10.00;99.90;;;;;;5069862;28;20422;-81
2022/11/12 05:32:27;;;;;;;1999.90;953.45;;;10.00;99.90;;;;;;5096123;28;20048;-78
2022/11/12 05:34:52;;;;;;;1788.13;789.97;;;10.00;99.90;;;;;;5093646;28;20062;-79
2022/11/12 05:37:20;;;;;;;1999.90;854.85;;;10.40;99.90;;;;;;5072845;28;20048;-81
2022/11/12 05:39:45;;;;;;;1184.13;156.95;;;10.40;99.90;;;;;;5100926;28;20548;-79
2022/11/12 05:42:11;;;;;;;1999.90;648.88;;;10.30;99.90;;;;;;5077947;28;20047;-79
2022/11/12 05:44:37;;;;;;;1133.40;147.65;;;10.30;99.90;;;;;;5101716;28;20054;-83
2022/11/12 05:47:02;;;;;;;1240.93;170.32;;;10.10;99.90;;;;;;5077970;28;20093;-80
2022/11/12 05:49:29;;;;;;;1018.95;143.43;;;;;;;;;;5104172;28;20062;-80
2022/11/12 05:51:54;;;;;;;1999.90;788.55;;;9.90;99.90;;;;;;5076828;28;20051;-80
2022/11/12 05:54:20;;;;;;;1999.90;717.42;;;11.20;99.90;;;;;;5069378;28;20047;-80
2022/11/12 05:56:46;;;;;;;1999.90;999.90;;;10.30;99.90;;;;;;5060383;28;20040;-80
2022/11/12 05:59:13;;;;;;;978.65;123.90;;;11.80;99.90;;;;;;5096691;28;20044;-80
2022/11/12 06:01:43;;;;;;;1999.90;999.90;;;10.20;99.90;;;;;;5065870;28;20059;-80
2022/11/12 06:04:16;;;;;;;1999.90;983.70;;;10.10;99.90;;;;;;5088799;28;20453;-82
2022/11/12 06:06:42;;;;;;;1677.03;604.83;;;10.10;99.90;;;;;;5084536;28;20070;-79
2022/11/12 06:09:08;;;;;;;1999.90;999.90;;;10.00;99.90;;;;;;5088692;28;20055;-80
2022/11/12 06:11:35;;;;;;;1837.15;615.78;;;11.60;99.90;;;;;;5089537;28;20039;-85
2022/11/12 06:14:01;;;;;;;1850.90;781.30;;;10.00;99.90;;;;;;5081482;28;20052;-80
2022/11/12 06:16:27;;;;;;;1106.00;153.65;;;11.80;99.90;;;;;;5071626;28;20052;-80
2022/11/12 06:18:53;;;;;;;1979.40;831.80;;;11.50;99.90;;;;;;5103148;28;20040;-81
2022/11/12 06:21:19;;;;;;;1780.25;593.97;;;9.80;99.90;;;;;;5095524;28;20055;-81
2022/11/12 06:23:46;;;;;;;1764.25;581.47;;;9.80;99.90;;;;;;5084636;28;20152;-80
2022/11/12 06:26:15;;;;;;;1887.55;185.15;;;10.10;99.90;;;;;;5088862;28;20036;-80
2022/11/12 06:28:40;;;;;;;1999.90;999.90;;;9.90;99.90;;;;;;5078889;28;20051;-84
2022/11/12 06:31:06;;;;;;;1999.90;634.35;;;10.20;1.00;;;;;;5098171;28;20514;-80
2022/11/12 06:33:32;;;;;;;1443.53;218.68;;;10.00;1.00;;;;;;5088882;28;20093;-81
2022/11/12 06:36:01;;;;;;;1268.20;164.38;;;10.30;1.00;;;;;;5070356;28;20048;-79
2022/11/12 06:38:36;;;;;;;1999.90;544.22;;;10.90;1.00;;;;;;5102516;28;20040;-80
2022/11/12 06:41:03;;;;;;;1999.90;607.03;;;10.30;1.00;;;;;;5087497;28;20140;-81
2022/11/12 06:43:30;;;;;;;1999.90;808.10;;;10.30;1.00;;;;;;5095784;28;20127;-80
2022/11/12 06:46:09;;;;;;;1999.90;885.20;;;10.40;1.00;;;;;;5064734;28;20187;-79
2022/11/12 06:48:35;;;;;;;1586.97;593.95;;;10.50;1.00;;;;;;5085355;28;20120;-81
2022/11/12 06:51:10;;;;;;;1999.90;743.70;;;10.60;1.00;;;;;;5075700;28;20056;-81
2022/11/12 06:53:36;;;;;;;1071.10;133.30;;;10.80;1.00;;;;;;5090919;28;20045;-79
2022/11/12 06:56:06;;;;;;;1999.90;933.83;;;10.80;99.90;;;;;;5082554;28;20048;-79
2022/11/12 06:58:32;;;;;;;1999.90;999.90;;;11.00;1.00;;;;;;5091932;28;20407;-79
2022/11/12 07:01:03;;;;;;;1999.90;999.90;;;11.00;1.00;;;;;;5078923;28;20457;-80
2022/11/12 07:03:29;;;;;;;1999.90;904.28;;;11.10;1.00;;;;;;5088867;28;20059;-81
2022/11/12 07:05:54;;;;;;;1999.90;984.85;;;11.10;1.00;;;;;;5105598;28;20063;-79
2022/11/12 07:08:20;;;;;;;1999.90;791.30;;;11.10;1.00;;;;;;5085773;28;20039;-84
2022/11/12 07:10:46;;;;;;;1999.90;999.90;;;11.20;1.00;;;;;;5070498;28;20044;-80
2022/11/12 07:13:11;;;;;;;1999.90;999.90;;;11.20;99.90;;;;;;5089425;28;20488;-79
2022/11/12 07:15:37;;;;;;;1999.90;999.90;;;12.30;99.90;;;;;;5087314;28;20044;-82
2022/11/12 07:18:03;;;;;;;1915.55;789.85;;;11.30;1.00;;;;;;5080066;28;20093;-80
2022/11/12 07:20:28;;;;;;;1999.90;999.90;;;11.40;1.00;;;;;;5087620;28;20055;-78
2022/11/12 07:22:58;;;;;;;1041.78;135.38;;;11.40;1.00;;;;;;5104381;28;20040;-79
2022/11/12 07:25:23;;;;;;;1999.90;999.90;;;11.50;1.00;;;;;;5065454;28;20050;-78
2022/11/12 07:27:49;;;;;;;1999.90;999.90;;;11.50;1.00;;;;;;5092581;28;20484;-80
2022/11/12 07:30:15;;;;;;;1999.90;999.90;;;12.30;1.00;;;;;;5092238;28;20277;-79
2022/11/12 07:32:41;;;;;;;1509.43;558.45;;;11.50;1.00;;;;;;5075338;28;20483;-78
2022/11/12 07:35:07;;;;;;;1999.90;999.90;;;11.40;1.00;;;;;;5093155;28;20058;-80
2022/11/12 07:37:34;;;;;;;1512.25;563.78;;;11.50;1.00;;;;;;5090388;28;20119;-78
2022/11/12 07:39:59;;;;;;;1999.90;394.35;;;13.30;1.00;;;;;;5092713;28;20560;-79
2022/11/12 07:42:25;;;;;;;1999.90;819.25;;;12.30;1.00;;;;;;5092610;28;20048;-78
2022/11/12 07:44:50;;;;;;;1973.85;316.00;;;11.70;1.00;;;;;;5092217;28;20055;-79
2022/11/12 07:47:16;;;;;;;1999.90;793.17;;;11.70;1.00;;;;;;5099172;28;20044;-79
2022/11/12 07:49:42;;;;;;;1999.90;411.90;;;10.80;99.90;;;;;;5096648;28;20050;-79
2022/11/12 07:52:08;;;;;;;1999.90;578.95;;;11.70;99.90;;;;;;5101921;28;20048;-79
2022/11/12 07:54:33;;;;;;;1999.90;815.60;;;11.70;99.90;;;;;;5096026;28;20054;-79
2022/11/12 07:56:59;;;;;;;1999.90;999.90;;;11.80;99.90;;;;;;5086661;28;20081;-78
2022/11/12 07:59:24;;;;;;;1999.90;999.90;;;11.80;99.90;;;;;;5079649;28;20395;-80
2022/11/12 08:01:50;;;;;;;1742.13;760.00;;;13.60;99.90;;;;;;5091745;28;20090;-79
2022/11/12 08:04:16;;;;;;;1999.90;999.90;;;11.80;99.90;;;;;;5076622;28;20258;-84
2022/11/12 08:06:41;;;;;;;1986.57;570.60;;;11.90;99.90;;;;;;5084795;28;20048;-79
2022/11/12 08:09:08;;;;;;;1924.15;784.00;;;11.90;99.90;;;;;;5092235;28;20066;-79
2022/11/12 08:11:34;;;;;;;1854.07;302.10;;;12.00;99.90;;;;;;5110024;28;20391;-79
2022/11/12 08:14:00;;;;;;;1999.90;811.00;;;12.00;99.90;;;;;;5082835;28;20056;-79
2022/11/12 08:16:26;;;;;;;1915.00;811.38;;;12.00;99.90;;;;;;5090298;28;20044;-79
2022/11/12 08:18:52;;;;;;;1999.90;362.10;;;12.00;99.90;;;;;;5090497;28;20071;-78
2022/11/12 08:21:18;;;;;;;1926.40;783.42;;;12.90;99.90;;;;;;5106483;28;20052;-80
2022/11/12 08:23:44;;;;;;;1999.90;999.90;;;12.10;99.90;;;;;;5091572;28;20048;-80
2022/11/12 08:26:12;;;;;;;1999.90;999.90;;;12.80;99.90;;;;;;5106934;28;20044;-80
2022/11/12 08:28:38;;;;;;;1186.38;93.25;;;12.20;99.90;;;;;;5090191;28;20040;-79
2022/11/12 08:31:07;;;;;;;1999.90;999.90;;;12.30;99.90;;;;;;5098139;28;20079;-79
2022/11/12 08:33:34;;;;;;;1999.90;999.90;;;12.80;99.90;;;;;;5105621;28;20491;-79
2022/11/12 08:36:04;;;;;;;1851.80;768.17;;;12.30;99.90;;;;;;5083673;28;20044;-80
2022/11/12 08:38:30;;;;;;;1999.90;999.90;;;12.40;99.90;;;;;;5090901;28;20083;-79
2022/11/12 08:41:00;;;;;;;1999.90;999.90;;;12.50;99.90;;;;;;5110672;28;20040;-79
2022/11/12 08:43:26;;;;;;;1999.90;999.90;;;12.50;99.90;;;;;;5081010;28;20047;-80
2022/11/12 08:45:51;;;;;;;1999.90;999.90;;;12.70;99.90;;;;;;5065689;28;20052;-80
2022/11/12 08:48:17;;;;;;;1999.90;999.90;;;12.60;99.90;;;;;;5110330;28;20135;-79
2022/11/12 08:50:43;;;;;;;1999.90;999.90;;;11.40;99.90;;;;;;5108858;28;20044;-80
2022/11/12 08:53:11;;;;;;;1999.90;999.90;;;12.60;99.90;;;;;;5089215;28;20098;-79
2022/11/12 08:55:37;;;;;;;1999.90;999.90;;;12.60;99.90;;;;;;5094583;28;20044;-79
2022/11/12 08:58:03;;;;;;;1999.90;999.90;;;12.70;99.90;;;;;;5105407;28;20479;-80
2022/11/12 09:00:32;;;;;;;1999.90;999.90;;;12.70;99.90;;;;;;5090247;28;20043;-79
2022/11/12 09:03:06;;;;;;;1999.90;999.90;;;12.90;99.90;;;;;;5092284;28;20048;-80
2022/11/12 09:05:34;;;;;;;1999.90;999.90;;;11.60;99.90;;;;;;5086970;28;20047;-79
2022/11/12 09:08:09;;;;;;;1999.90;999.90;;;12.80;99.90;;;;;;5109167;28;20093;-85
2022/11/12 09:10:35;;;;;;;1999.90;999.90;;;12.90;99.90;;;;;;5090352;28;20083;-80
2022/11/12 09:13:02;;;;;;;1999.90;999.90;;;12.90;99.90;;;;;;5093925;28;20168;-85
2022/11/12 09:15:28;;;;;;;1999.90;999.90;;;11.20;99.90;;;;;;5104386;28;20113;-81
2022/11/12 09:17:58;;;;;;;1999.90;999.90;;;13.00;99.90;;;;;;5091488;28;20039;-80
2022/11/12 09:20:27;;;;;;;1999.90;999.90;;;13.10;99.90;;;;;;5094825;28;20040;-79
2022/11/12 09:22:56;;;;;;;1999.90;999.90;;;13.00;99.90;;;;;;5112644;28;20044;-79
2022/11/12 09:25:22;;;;;;;1999.90;999.90;;;14.30;99.90;;;;;;5098129;28;20099;-79
2022/11/12 09:27:48;;;;;;;1999.90;999.90;;;13.10;12.00;;;;;;5090547;28;20091;-79
2022/11/12 09:30:14;;;;;;;1999.90;999.90;;;13.00;32.20;;;;;;5098864;28;20048;-79
2022/11/12 09:32:39;;;;;;;1999.90;999.90;;;13.10;52.70;;;;;;5094135;28;20047;-79
2022/11/12 09:35:05;;;;;;;1999.90;999.90;;;13.10;23.80;;;;;;5102277;28;20122;-80
2022/11/12 09:37:31;;;;;;;1999.90;999.90;;;13.10;1.20;;;;;;5073881;28;20040;-78
2022/11/12 09:39:57;;;;;;;1999.90;999.90;;;13.20;1.00;;;;;;5085588;28;20044;-80
2022/11/12 09:42:23;;;;;;;1999.90;999.90;;;12.10;1.00;;;;;;5096343;28;20254;-80
2022/11/12 09:44:58;;;;;;;1999.90;999.90;;;13.20;1.00;;;;;;5072695;28;20489;-81
2022/11/12 09:47:32;;;;;;;1999.90;999.90;;;13.20;99.90;;;;;;5082062;28;20131;-82
2022/11/12 09:50:13;;;;;;;1999.90;999.90;;;13.30;1.00;;;;;;5095643;28;20048;-80
2022/11/12 09:52:42;;;;;;;1999.90;999.90;;;13.60;99.90;;;;;;5071736;28;20083;-80
2022/11/12 09:55:11;;;;;;;1999.90;999.90;;;13.20;99.90;;;;;;5085826;28;20074;-80
2022/11/12 09:57:37;;;;;;;1999.90;999.90;;;13.30;99.90;;;;;;5083151;28;20122;-79
2022/11/12 10:00:13;;;;;;;1999.90;999.90;;;13.90;99.90;;;;;;5083758;28;20074;-76
2022/11/12 10:02:46;;;;;;;1999.90;999.90;;;13.30;99.90;;;;;;5076879;28;20048;-78
2022/11/12 10:05:32;;;;;;;1999.90;999.90;;;13.40;99.90;;;;;;5091448;28;20048;-78
2022/11/12 10:08:35;;;;;;;1999.90;999.90;;;13.50;99.90;;;;;;5088690;28;20129;-80
2022/11/12 10:11:26;;;;;;;1999.90;999.90;;;13.50;99.90;;;;;;5090259;28;20048;-79
2022/11/12 10:14:21;;;;;;;1999.90;999.90;;;13.50;99.90;;;;;;5091101;28;20052;-78
2022/11/12 10:16:59;;;;;;;1999.90;999.90;;;13.60;99.90;;;;;;5088527;28;20092;-78
2022/11/12 10:19:40;;;;;;;1999.90;999.90;;;13.60;90.10;;;;;;5089144;28;20056;-78
2022/11/12 10:22:43;;;;;;;1999.90;999.90;;;13.60;89.60;;;;;;5091611;28;20047;-76
2022/11/12 10:25:15;;;;;;;1999.90;999.90;;;13.70;86.60;;;;;;5110310;28;20382;-88
2022/11/12 10:27:42;;;;;;;1999.90;999.90;;;13.80;99.90;;;;;;5087354;28;20093;-80
2022/11/12 10:30:17;;;;;;;1999.90;999.90;;;13.80;1.00;;;;;;5055383;28;20047;-76
2022/11/12 10:32:47;;;;;;;1999.90;999.90;;;13.80;44.50;;;;;;5087949;28;20127;-77
2022/11/12 10:35:16;;;;;;;1999.90;999.90;;;13.90;17.40;;;;;;5086759;28;20160;-84
2022/11/12 10:37:51;;;;;;;1999.90;999.90;;;13.90;1.00;;;;;;5087499;28;20048;-77
2022/11/12 10:40:21;;;;;;;1999.90;999.90;;;13.90;1.00;;;;;;5074481;28;20395;-77
2022/11/12 10:43:15;;;;;;;1999.90;999.90;;;13.90;1.00;;;;;;5091913;28;20048;-77
2022/11/12 10:45:45;;;;;;;1999.90;999.90;;;14.00;99.90;;;;;;5090842;28;20063;-79
2022/11/12 10:48:29;;;;;;;1999.90;999.90;;;13.90;99.90;;;;;;5084910;28;20101;-76
2022/11/12 10:50:57;;;;;;;1999.90;999.90;;;14.00;99.90;;;;;;5089427;28;20036;-76
2022/11/12 10:53:36;;;;;;;1999.90;999.90;;;14.00;99.90;;;;;;5090570;28;20098;-77
2022/11/12 10:56:20;;;;;;;1999.90;999.90;;;14.00;99.90;;;;;;5092362;28;20040;-76
2022/11/12 10:59:05;;;;;;;1999.90;999.90;;;14.10;99.90;;;;;;5095229;28;20441;-76
2022/11/12 11:01:32;;;;;;;1999.90;999.90;;;14.10;99.90;;;;;;5094356;28;20063;-81
2022/11/12 11:03:57;;;;;;;1999.90;999.90;;;14.60;99.90;;;;;;5093452;28;20040;-76
2022/11/12 11:06:25;;;;;;;1999.90;999.90;;;14.20;99.90;;;;;;5109429;28;20051;-75
2022/11/12 11:09:06;;;;;;;1999.90;999.90;;;15.10;99.90;;;;;;5098620;28;20128;-81
2022/11/12 11:11:33;;;;;;;1999.90;999.90;;;14.30;69.00;;;;;;5072105;28;20051;-76
2022/11/12 11:14:28;;;;;;;1999.90;999.90;;;14.40;1.00;;;;;;5093153;28;20119;-77
2022/11/12 11:16:57;;;;;;;1999.90;999.90;;;14.40;1.00;;;;;;5087857;28;20082;-76
2022/11/12 11:19:32;;;;;;;1999.90;999.90;;;14.60;1.00;;;;;;5098089;28;20130;-76
2022/11/12 11:22:17;;;;;;;1999.90;999.90;;;14.50;99.90;;;;;;5095076;28;20547;-76
2022/11/12 11:25:14;;;;;;;1999.90;999.90;;;14.60;99.90;;;;;;5094844;28;20096;-76
2022/11/12 11:28:04;;;;;;;1999.90;999.90;;;14.60;99.90;;;;;;5091143;28;20067;-77
2022/11/12 11:30:31;;;;;;;1999.90;999.90;;;14.80;99.90;;;;;;5065396;28;20048;-76
2022/11/12 11:33:03;;;;;;;1999.90;999.90;;;14.90;99.90;;;;;;5093852;28;20051;-84
2022/11/12 11:35:53;;;;;;;1999.90;999.90;;;15.00;99.90;;;;;;5102369;27;20082;-77
2022/11/12 11:38:31;;;;;;;1999.90;999.90;;;15.10;99.90;;;;;;5088748;28;20487;-77
2022/11/12 11:41:06;;;;;;;1999.90;999.90;;;15.10;1.00;;;;;;5095323;28;20609;-77
2022/11/12 11:44:34;;;;;;;1999.90;999.90;;;15.20;99.90;;;;;;5097264;28;20121;-87
2022/11/12 11:47:11;;;;;;;1999.90;999.90;;;15.20;1.00;;;;;;5037773;28;20055;-80
2022/11/12 11:49:55;;;;;;;1999.90;999.90;;;15.40;99.90;;;;;;5074651;28;20041;-77
2022/11/12 11:52:42;;;;;;;1999.90;999.90;;;15.50;99.90;;;;;;5094803;28;20078;-78
2022/11/12 11:55:25;;;;;;;1999.90;999.90;;;15.60;99.90;;;;;;5084782;28;20040;-82
2022/11/12 11:58:18;;;;;;;1999.90;999.90;;;15.70;1.00;;;;;;5094560;28;20070;-77
2022/11/12 12:01:16;;;;;;;1999.90;999.90;;;15.70;99.90;;;;;;5083804;28;20043;-78
2022/11/12 12:04:06;;;;;;;1999.90;999.90;;;15.80;99.90;;;;;;5092150;28;20154;-77
2022/11/12 12:06:45;;;;;;;1999.90;999.90;;;15.90;99.90;;;;;;5097357;28;20441;-77
2022/11/12 12:09:29;;;;;;;1999.90;999.90;;;16.00;99.90;;;;;;5096327;28;20096;-76
2022/11/12 12:12:34;;;;;;;1999.90;999.90;;;16.10;99.90;;;;;;5086789;28;20511;-77
2022/11/12 12:15:28;;;;;;;1999.90;999.90;;;16.20;99.90;;;;;;5076730;28;20040;-77
2022/11/12 12:18:23;;;;;;;1999.90;999.90;;;16.10;99.90;;;;;;5087388;28;20055;-77
2022/11/12 12:21:10;;;;;;;1999.90;999.90;;;16.10;1.00;;;;;;5093607;28;20044;-77
2022/11/12 12:23:47;;;;;;;1999.90;999.90;;;16.10;1.00;;;;;;5094254;28;20040;-77
2022/11/12 12:26:41;;;;;;;1999.90;999.90;;;16.10;1.00;;;;;;5090611;28;20123;-77
2022/11/12 12:29:38;;;;;;;1999.90;999.90;;;16.00;99.90;;;;;;5088997;28;20048;-77
2022/11/12 12:32:15;;;;;;;1999.90;999.90;;;16.00;99.90;;;;;;5111414;28;20105;-77
2022/11/12 12:35:02;;;;;;;1999.90;999.90;;;15.90;99.90;;;;;;5104960;28;20043;-77
2022/11/12 12:37:37;;;;;;;1999.90;999.90;;;15.90;99.90;;;;;;5090735;28;20510;-85
2022/11/12 12:40:34;;;;;;;1999.90;999.90;;;15.90;99.90;;;;;;5087809;28;20068;-77